Aviation Digital Data Service (ADDS)

Output produced by METARs form (0513 UTC 16 February 2019)
found at http://www.aviationweather.gov/metar/data/
 
METAR text: RKSM 160400Z 31006KT 9000 HZ FEW030 01/M09 A3025
Conditions at: RKSM (SEOUL EAST(KOR-A, KR) observed 0400 UTC 16 February 2019
Temperature: 1.0°C (34°F)
Dewpoint: -9.0°C (16°F) [RH = 47%]
Pressure (altimeter): 30.25 inches Hg (1024.5 mb)
Winds: from the NW (310 degrees) at 7 MPH (6 knots; 3.1 m/s)
Visibility: 6 miles ( 9 km)
Ceiling: at least 12,000 feet AGL
Clouds: few clouds at 3000 feet AGL
Weather: HZ  (haze)

METAR text: RKSM 160300Z 31005KT 9000 HZ FEW030 00/M08 A3027
Conditions at: RKSM (SEOUL EAST(KOR-A, KR) observed 0300 UTC 16 February 2019
Temperature: 0.0°C (32°F)
Dewpoint: -8.0°C (18°F) [RH = 55%]
Pressure (altimeter): 30.27 inches Hg (1025.1 mb)
Winds: from the NW (310 degrees) at 6 MPH (5 knots; 2.6 m/s)
Visibility: 6 miles ( 9 km)
Ceiling: at least 12,000 feet AGL
Clouds: few clouds at 3000 feet AGL
Weather: HZ  (haze)

METAR text: RKSM 160200Z 29006KT 9000 HZ FEW030 M02/M08 A3028
Conditions at: RKSM (SEOUL EAST(KOR-A, KR) observed 0200 UTC 16 February 2019
Temperature: -2.0°C (28°F)
Dewpoint: -8.0°C (18°F) [RH = 63%]
Pressure (altimeter): 30.28 inches Hg (1025.5 mb)
Winds: from the WNW (290 degrees) at 7 MPH (6 knots; 3.1 m/s)
Visibility: 6 miles ( 9 km)
Ceiling: at least 12,000 feet AGL
Clouds: few clouds at 3000 feet AGL
Weather: HZ  (haze)

METAR text: RKSM 160100Z 29005KT 9000 HZ FEW025 M03/M09 A3028
Conditions at: RKSM (SEOUL EAST(KOR-A, KR) observed 0100 UTC 16 February 2019
Temperature: -3.0°C (27°F)
Dewpoint: -9.0°C (16°F) [RH = 63%]
Pressure (altimeter): 30.28 inches Hg (1025.5 mb)
Winds: from the WNW (290 degrees) at 6 MPH (5 knots; 2.6 m/s)
Visibility: 6 miles ( 9 km)
Ceiling: at least 12,000 feet AGL
Clouds: few clouds at 2500 feet AGL
Weather: HZ  (haze)

METAR text: RKSM 160000Z 32004KT 9000 HZ FEW025 M03/M09 A3028
Conditions at: RKSM (SEOUL EAST(KOR-A, KR) observed 0000 UTC 16 February 2019
Temperature: -3.0°C (27°F)
Dewpoint: -9.0°C (16°F) [RH = 63%]
Pressure (altimeter): 30.28 inches Hg (1025.5 mb)
Winds: from the NW (320 degrees) at 5 MPH (4 knots; 2.1 m/s)
Visibility: 6 miles ( 9 km)
Ceiling: at least 12,000 feet AGL
Clouds: few clouds at 2500 feet AGL
Weather: HZ  (haze)

METAR text: RKSM 152300Z 34005KT 9000 HZ FEW025 M04/M08 A3026
Conditions at: RKSM (SEOUL EAST(KOR-A, KR) observed 2300 UTC 15 February 2019
Temperature: -4.0°C (25°F)
Dewpoint: -8.0°C (18°F) [RH = 74%]
Pressure (altimeter): 30.26 inches Hg (1024.8 mb)
Winds: from the NNW (340 degrees) at 6 MPH (5 knots; 2.6 m/s)
Visibility: 6 miles ( 9 km)
Ceiling: at least 12,000 feet AGL
Clouds: few clouds at 2500 feet AGL
Weather: HZ  (haze)

METAR text: RKSM 152200Z 30002KT 9000 HZ FEW050 M03/M09 A3024
Conditions at: RKSM (SEOUL EAST(KOR-A, KR) observed 2200 UTC 15 February 2019
Temperature: -3.0°C (27°F)
Dewpoint: -9.0°C (16°F) [RH = 63%]
Pressure (altimeter): 30.24 inches Hg (1024.1 mb)
Winds: from the WNW (300 degrees) at 2 MPH (2 knots; 1.0 m/s)
Visibility: 6 miles ( 9 km)
Ceiling: at least 12,000 feet AGL
Clouds: few clouds at 5000 feet AGL
Weather: HZ  (haze)

METAR text: RKSM 152100Z 32001KT 9999 BKN050 M03/M09 A3023
Conditions at: RKSM (SEOUL EAST(KOR-A, KR) observed 2100 UTC 15 February 2019
Temperature: -3.0°C (27°F)
Dewpoint: -9.0°C (16°F) [RH = 63%]
Pressure (altimeter): 30.23 inches Hg (1023.8 mb)
Winds: from the NW (320 degrees) at 1 MPH (1 knots; 0.5 m/s)
Visibility: 6 or more miles (10+ km)
Ceiling: 5000 feet AGL
Clouds: broken clouds at 5000 feet AGL
Weather: no significant weather observed at this time

METAR text: RKSM 152000Z 01004KT 9000 HZ BKN050 M03/M08 A3021
Conditions at: RKSM (SEOUL EAST(KOR-A, KR) observed 2000 UTC 15 February 2019
Temperature: -3.0°C (27°F)
Dewpoint: -8.0°C (18°F) [RH = 68%]
Pressure (altimeter): 30.21 inches Hg (1023.1 mb)
Winds: from the N (10 degrees) at 5 MPH (4 knots; 2.1 m/s)
Visibility: 6 miles ( 9 km)
Ceiling: 5000 feet AGL
Clouds: broken clouds at 5000 feet AGL
Weather: HZ  (haze)

METAR text: RKSM 151900Z 35005KT 8000 -SN BR BKN030 M03/M07 A3022
Conditions at: RKSM (SEOUL EAST(KOR-A, KR) observed 1900 UTC 15 February 2019
Temperature: -3.0°C (27°F)
Dewpoint: -7.0°C (19°F) [RH = 74%]
Pressure (altimeter): 30.22 inches Hg (1023.5 mb)
Winds: from the N (350 degrees) at 6 MPH (5 knots; 2.6 m/s)
Visibility: 5 miles ( 8 km)
Ceiling: 3000 feet AGL
Clouds: broken clouds at 3000 feet AGL
Weather: -SN BR  (light snow, mist)

METAR text: RKSM 151800Z 35005KT 8000 -SN HZ BKN030 M02/M08 A3023
Conditions at: RKSM (SEOUL EAST(KOR-A, KR) observed 1800 UTC 15 February 2019
Temperature: -2.0°C (28°F)
Dewpoint: -8.0°C (18°F) [RH = 63%]
Pressure (altimeter): 30.23 inches Hg (1023.8 mb)
Winds: from the N (350 degrees) at 6 MPH (5 knots; 2.6 m/s)
Visibility: 5 miles ( 8 km)
Ceiling: 3000 feet AGL
Clouds: broken clouds at 3000 feet AGL
Weather: -SN HZ  (light snow, haze)

METAR text: RKSM 151700Z 35005KT 9999 BKN030 M02/M07 A3021
Conditions at: RKSM (SEOUL EAST(KOR-A, KR) observed 1700 UTC 15 February 2019
Temperature: -2.0°C (28°F)
Dewpoint: -7.0°C (19°F) [RH = 69%]
Pressure (altimeter): 30.21 inches Hg (1023.1 mb)
Winds: from the N (350 degrees) at 6 MPH (5 knots; 2.6 m/s)
Visibility: 6 or more miles (10+ km)
Ceiling: 3000 feet AGL
Clouds: broken clouds at 3000 feet AGL
Weather: no significant weather observed at this time

METAR text: RKSM 151600Z 35005KT 9999 BKN030 M01/M07 A3020
Conditions at: RKSM (SEOUL EAST(KOR-A, KR) observed 1600 UTC 15 February 2019
Temperature: -1.0°C (30°F)
Dewpoint: -7.0°C (19°F) [RH = 64%]
Pressure (altimeter): 30.20 inches Hg (1022.8 mb)
Winds: from the N (350 degrees) at 6 MPH (5 knots; 2.6 m/s)
Visibility: 6 or more miles (10+ km)
Ceiling: 3000 feet AGL
Clouds: broken clouds at 3000 feet AGL
Weather: no significant weather observed at this time

METAR text: RKSM 151500Z 35005KT 9999 BKN030 M01/M07 A3019
Conditions at: RKSM (SEOUL EAST(KOR-A, KR) observed 1500 UTC 15 February 2019
Temperature: -1.0°C (30°F)
Dewpoint: -7.0°C (19°F) [RH = 64%]
Pressure (altimeter): 30.19 inches Hg (1022.4 mb)
Winds: from the N (350 degrees) at 6 MPH (5 knots; 2.6 m/s)
Visibility: 6 or more miles (10+ km)
Ceiling: 3000 feet AGL
Clouds: broken clouds at 3000 feet AGL
Weather: no significant weather observed at this time

METAR text: RKSM 151400Z 33005KT 9999 FEW015 BKN030 M00/M06 A3019
Conditions at: RKSM (SEOUL EAST(KOR-A, KR) observed 1400 UTC 15 February 2019
Temperature: 0.0°C (32°F)
Dewpoint: -6.0°C (21°F) [RH = 64%]
Pressure (altimeter): 30.19 inches Hg (1022.4 mb)
Winds: from the NNW (330 degrees) at 6 MPH (5 knots; 2.6 m/s)
Visibility: 6 or more miles (10+ km)
Ceiling: 3000 feet AGL
Clouds: few clouds at 1500 feet AGL
broken clouds at 3000 feet AGL
Weather: no significant weather observed at this time

METAR text: RKSM 151300Z 32005KT 6000 BR FEW015 BKN030 00/M05 A3021
Conditions at: RKSM (SEOUL EAST(KOR-A, KR) observed 1300 UTC 15 February 2019
Temperature: 0.0°C (32°F)
Dewpoint: -5.0°C (23°F) [RH = 69%]
Pressure (altimeter): 30.21 inches Hg (1023.1 mb)
Winds: from the NW (320 degrees) at 6 MPH (5 knots; 2.6 m/s)
Visibility: 4 miles ( 6 km)
Ceiling: 3000 feet AGL
Clouds: few clouds at 1500 feet AGL
broken clouds at 3000 feet AGL
Weather: BR  (mist)

METAR text: RKSM 151200Z 31007KT 4400 -SN HZ BKN015 OVC030 00/M06 A3019
Conditions at: RKSM (SEOUL EAST(KOR-A, KR) observed 1200 UTC 15 February 2019
Temperature: 0.0°C (32°F)
Dewpoint: -6.0°C (21°F) [RH = 64%]
Pressure (altimeter): 30.19 inches Hg (1022.4 mb)
Winds: from the NW (310 degrees) at 8 MPH (7 knots; 3.6 m/s)
Visibility: 2.73 miles (4.39 km)
Ceiling: 1500 feet AGL
Clouds: broken clouds at 1500 feet AGL
overcast cloud deck at 3000 feet AGL
Weather: -SN HZ  (light snow, haze)

METAR text: RKSM 151100Z 31008KT 4400 -SN HZ BKN015 OVC030 01/M04 A3019
Conditions at: RKSM (SEOUL EAST(KOR-A, KR) observed 1100 UTC 15 February 2019
Temperature: 1.0°C (34°F)
Dewpoint: -4.0°C (25°F) [RH = 69%]
Pressure (altimeter): 30.19 inches Hg (1022.4 mb)
Winds: from the NW (310 degrees) at 9 MPH (8 knots; 4.1 m/s)
Visibility: 2.73 miles (4.39 km)
Ceiling: 1500 feet AGL
Clouds: broken clouds at 1500 feet AGL
overcast cloud deck at 3000 feet AGL
Weather: -SN HZ  (light snow, haze)

METAR text: RKSM 151000Z 27004KT 4400 -SN BR BKN015 OVC030 02/M02 A3017
Conditions at: RKSM (SEOUL EAST(KOR-A, KR) observed 1000 UTC 15 February 2019
Temperature: 2.0°C (36°F)
Dewpoint: -2.0°C (28°F) [RH = 75%]
Pressure (altimeter): 30.17 inches Hg (1021.8 mb)
Winds: from the W (270 degrees) at 5 MPH (4 knots; 2.1 m/s)
Visibility: 2.73 miles (4.39 km)
Ceiling: 1500 feet AGL
Clouds: broken clouds at 1500 feet AGL
overcast cloud deck at 3000 feet AGL
Weather: -SN BR  (light snow, mist)

METAR text: RKSM 150900Z 21005KT 3200 -SN BR FEW000 BKN015 OVC030 01/M01 A3016
Conditions at: RKSM (SEOUL EAST(KOR-A, KR) observed 0900 UTC 15 February 2019
Temperature: 1.0°C (34°F)
Dewpoint: -1.0°C (30°F) [RH = 86%]
Pressure (altimeter): 30.16 inches Hg (1021.4 mb)
Winds: from the SSW (210 degrees) at 6 MPH (5 knots; 2.6 m/s)
Visibility: 1.99 miles (3.20 km)
Ceiling: 1500 feet AGL
Clouds: few clouds at 0 feet AGL
broken clouds at 1500 feet AGL
overcast cloud deck at 3000 feet AGL
Weather: -SN BR  (light snow, mist)

METAR text: RKSM 150800Z 20005KT 2400 1400 -SN BR FEW000 BKN015 OVC030 01/M01 A3017
Conditions at: RKSM (SEOUL EAST(KOR-A, KR) observed 0800 UTC 15 February 2019
Temperature: 1.0°C (34°F)
Dewpoint: -1.0°C (30°F) [RH = 86%]
Pressure (altimeter): 30.17 inches Hg (1021.8 mb)
Winds: from the SSW (200 degrees) at 6 MPH (5 knots; 2.6 m/s)
Visibility: 1.49 miles (2.40 km)
Ceiling: 1500 feet AGL
Clouds: few clouds at 0 feet AGL
broken clouds at 1500 feet AGL
overcast cloud deck at 3000 feet AGL
Weather: -SN BR  (light snow, mist)

METAR text: RKSM 150700Z 19008KT 4800 -SN BR BKN018 OVC030 01/M02 A3017
Conditions at: RKSM (SEOUL EAST(KOR-A, KR) observed 0700 UTC 15 February 2019
Temperature: 1.0°C (34°F)
Dewpoint: -2.0°C (28°F) [RH = 80%]
Pressure (altimeter): 30.17 inches Hg (1021.8 mb)
Winds: from the S (190 degrees) at 9 MPH (8 knots; 4.1 m/s)
Visibility: 2.98 miles (4.80 km)
Ceiling: 1800 feet AGL
Clouds: broken clouds at 1800 feet AGL
overcast cloud deck at 3000 feet AGL
Weather: -SN BR  (light snow, mist)

METAR text: RKSM 150600Z 19008KT 8000 BR SCT020 BKN030 01/M02 A3018
Conditions at: RKSM (SEOUL EAST(KOR-A, KR) observed 0600 UTC 15 February 2019
Temperature: 1.0°C (34°F)
Dewpoint: -2.0°C (28°F) [RH = 80%]
Pressure (altimeter): 30.18 inches Hg (1022.1 mb)
Winds: from the S (190 degrees) at 9 MPH (8 knots; 4.1 m/s)
Visibility: 5 miles ( 8 km)
Ceiling: 3000 feet AGL
Clouds: scattered clouds at 2000 feet AGL
broken clouds at 3000 feet AGL
Weather: BR  (mist)

METAR text: RKSM 150500Z 20003KT 6000 BR SCT020 BKN030 01/M03 A3021
Conditions at: RKSM (SEOUL EAST(KOR-A, KR) observed 0500 UTC 15 February 2019
Temperature: 1.0°C (34°F)
Dewpoint: -3.0°C (27°F) [RH = 75%]
Pressure (altimeter): 30.21 inches Hg (1023.1 mb)
Winds: from the SSW (200 degrees) at 3 MPH (3 knots; 1.5 m/s)
Visibility: 4 miles ( 6 km)
Ceiling: 3000 feet AGL
Clouds: scattered clouds at 2000 feet AGL
broken clouds at 3000 feet AGL
Weather: BR  (mist)

METAR text: RKSM 150400Z 28003KT 9000 BR SCT020 BKN030 01/M03 A3023
Conditions at: RKSM (SEOUL EAST(KOR-A, KR) observed 0400 UTC 15 February 2019
Temperature: 1.0°C (34°F)
Dewpoint: -3.0°C (27°F) [RH = 75%]
Pressure (altimeter): 30.23 inches Hg (1023.8 mb)
Winds: from the W (280 degrees) at 3 MPH (3 knots; 1.5 m/s)
Visibility: 6 miles ( 9 km)
Ceiling: 3000 feet AGL
Clouds: scattered clouds at 2000 feet AGL
broken clouds at 3000 feet AGL
Weather: BR  (mist)

METAR text: RKSM 150300Z 30002KT 9999 RESN SCT015 BKN030 00/M03 A3027
Conditions at: RKSM (SEOUL EAST(KOR-A, KR) observed 0300 UTC 15 February 2019
Temperature: 0.0°C (32°F)
Dewpoint: -3.0°C (27°F) [RH = 80%]
Pressure (altimeter): 30.27 inches Hg (1025.1 mb)
Winds: from the WNW (300 degrees) at 2 MPH (2 knots; 1.0 m/s)
Visibility: 6 or more miles (10+ km)
Ceiling: 3000 feet AGL
Clouds: scattered clouds at 1500 feet AGL
broken clouds at 3000 feet AGL
Weather: no significant weather observed at this time

METAR text: RKSM 150200Z 17001KT 8000 -SN BR SCT015 BKN030 00/M03 A3028
Conditions at: RKSM (SEOUL EAST(KOR-A, KR) observed 0200 UTC 15 February 2019
Temperature: 0.0°C (32°F)
Dewpoint: -3.0°C (27°F) [RH = 80%]
Pressure (altimeter): 30.28 inches Hg (1025.5 mb)
Winds: from the S (170 degrees) at 1 MPH (1 knots; 0.5 m/s)
Visibility: 5 miles ( 8 km)
Ceiling: 3000 feet AGL
Clouds: scattered clouds at 1500 feet AGL
broken clouds at 3000 feet AGL
Weather: -SN BR  (light snow, mist)

METAR text: RKSM 150103Z 12001KT 3200 -SN BR FEW000 SCT025 BKN030 M01/M03 A3029 RMK CIG030 FG FEW000
Conditions at: RKSM (SEOUL EAST(KOR-A, KR) observed 0103 UTC 15 February 2019
Temperature: -1.0°C (30°F)
Dewpoint: -3.0°C (27°F) [RH = 86%]
Pressure (altimeter): 30.29 inches Hg (1025.8 mb)
Winds: from the ESE (120 degrees) at 1 MPH (1 knots; 0.5 m/s)
Visibility: 1.99 miles (3.20 km)
Ceiling: 3000 feet AGL
Clouds: few clouds at 0 feet AGL
scattered clouds at 2500 feet AGL
broken clouds at 3000 feet AGL
Weather: -SN BR  (light snow, mist)

METAR text: RKSM 150100Z 12001KT 2800 -SN BR FEW000 SCT025 BKN030 M01/M03 A3030
Conditions at: RKSM (SEOUL EAST(KOR-A, KR) observed 0100 UTC 15 February 2019
Temperature: -1.0°C (30°F)
Dewpoint: -3.0°C (27°F) [RH = 86%]
Pressure (altimeter): 30.30 inches Hg (1026.2 mb)
Winds: from the ESE (120 degrees) at 1 MPH (1 knots; 0.5 m/s)
Visibility: 1.74 miles (2.80 km)
Ceiling: 3000 feet AGL
Clouds: few clouds at 0 feet AGL
scattered clouds at 2500 feet AGL
broken clouds at 3000 feet AGL
Weather: -SN BR  (light snow, mist)

METAR text: RKSM 150025Z 00000KT 2400 -SN BR FEW000 FEW025 BKN030 M02/M03 A3030 RMK CIG030 FG FEW000
Conditions at: RKSM (SEOUL EAST(KOR-A, KR) observed 0025 UTC 15 February 2019
Temperature: -2.0°C (28°F)
Dewpoint: -3.0°C (27°F) [RH = 93%]
Pressure (altimeter): 30.30 inches Hg (1026.2 mb)
Winds: calm
Visibility: 1.49 miles (2.40 km)
Ceiling: 3000 feet AGL
Clouds: few clouds at 0 feet AGL
few clouds at 2500 feet AGL
broken clouds at 3000 feet AGL
Weather: -SN BR  (light snow, mist)

METAR text: RKSM 150000Z 02001KT 3200 -SN BR FEW025 BKN030 M02/M04 A3030
Conditions at: RKSM (SEOUL EAST(KOR-A, KR) observed 0000 UTC 15 February 2019
Temperature: -2.0°C (28°F)
Dewpoint: -4.0°C (25°F) [RH = 86%]
Pressure (altimeter): 30.30 inches Hg (1026.2 mb)
Winds: from the NNE (20 degrees) at 1 MPH (1 knots; 0.5 m/s)
Visibility: 1.99 miles (3.20 km)
Ceiling: 3000 feet AGL
Clouds: few clouds at 2500 feet AGL
broken clouds at 3000 feet AGL
Weather: -SN BR  (light snow, mist)

METAR text: RKSM 142323Z 35002KT 4000 -SN BR FEW025 BKN030 M02/M04 A3030 RMK CIG030
Conditions at: RKSM (SEOUL EAST(KOR-A, KR) observed 2323 UTC 14 February 2019
Temperature: -2.0°C (28°F)
Dewpoint: -4.0°C (25°F) [RH = 86%]
Pressure (altimeter): 30.30 inches Hg (1026.2 mb)
Winds: from the N (350 degrees) at 2 MPH (2 knots; 1.0 m/s)
Visibility: 2.49 miles (4.01 km)
Ceiling: 3000 feet AGL
Clouds: few clouds at 2500 feet AGL
broken clouds at 3000 feet AGL
Weather: -SN BR  (light snow, mist)

METAR text: RKSM 142300Z 33002KT 4800 -SN BR BKN040 M02/M04 A3028
Conditions at: RKSM (SEOUL EAST(KOR-A, KR) observed 2300 UTC 14 February 2019
Temperature: -2.0°C (28°F)
Dewpoint: -4.0°C (25°F) [RH = 86%]
Pressure (altimeter): 30.28 inches Hg (1025.5 mb)
Winds: from the NNW (330 degrees) at 2 MPH (2 knots; 1.0 m/s)
Visibility: 2.98 miles (4.80 km)
Ceiling: 4000 feet AGL
Clouds: broken clouds at 4000 feet AGL
Weather: -SN BR  (light snow, mist)

METAR text: RKSM 142200Z 33005KT 9999 BKN050 M01/M05 A3028
Conditions at: RKSM (SEOUL EAST(KOR-A, KR) observed 2200 UTC 14 February 2019
Temperature: -1.0°C (30°F)
Dewpoint: -5.0°C (23°F) [RH = 74%]
Pressure (altimeter): 30.28 inches Hg (1025.5 mb)
Winds: from the NNW (330 degrees) at 6 MPH (5 knots; 2.6 m/s)
Visibility: 6 or more miles (10+ km)
Ceiling: 5000 feet AGL
Clouds: broken clouds at 5000 feet AGL
Weather: no significant weather observed at this time

METAR text: RKSM 142100Z 31004KT 9999 BKN050 00/M09 A3028
Conditions at: RKSM (SEOUL EAST(KOR-A, KR) observed 2100 UTC 14 February 2019
Temperature: 0.0°C (32°F)
Dewpoint: -9.0°C (16°F) [RH = 51%]
Pressure (altimeter): 30.28 inches Hg (1025.5 mb)
Winds: from the NW (310 degrees) at 5 MPH (4 knots; 2.1 m/s)
Visibility: 6 or more miles (10+ km)
Ceiling: 5000 feet AGL
Clouds: broken clouds at 5000 feet AGL
Weather: no significant weather observed at this time

METAR text: RKSM 142000Z 32002KT 9999 SCT050 BKN070 00/M10 A3028
Conditions at: RKSM (SEOUL EAST(KOR-A, KR) observed 2000 UTC 14 February 2019
Temperature: 0.0°C (32°F)
Dewpoint: -10.0°C (14°F) [RH = 47%]
Pressure (altimeter): 30.28 inches Hg (1025.5 mb)
Winds: from the NW (320 degrees) at 2 MPH (2 knots; 1.0 m/s)
Visibility: 6 or more miles (10+ km)
Ceiling: 7000 feet AGL
Clouds: scattered clouds at 5000 feet AGL
broken clouds at 7000 feet AGL
Weather: no significant weather observed at this time

METAR text: RKSM 141900Z 33003KT 9999 FEW050 BKN070 00/M12 A3030
Conditions at: RKSM (SEOUL EAST(KOR-A, KR) observed 1900 UTC 14 February 2019
Temperature: 0.0°C (32°F)
Dewpoint: -12.0°C (10°F) [RH = 40%]
Pressure (altimeter): 30.30 inches Hg (1026.2 mb)
Winds: from the NNW (330 degrees) at 3 MPH (3 knots; 1.5 m/s)
Visibility: 6 or more miles (10+ km)
Ceiling: 7000 feet AGL
Clouds: few clouds at 5000 feet AGL
broken clouds at 7000 feet AGL
Weather: no significant weather observed at this time

METAR text: RKSM 141800Z 21002KT 9999 BKN070 M00/M10 A3033
Conditions at: RKSM (SEOUL EAST(KOR-A, KR) observed 1800 UTC 14 February 2019
Temperature: 0.0°C (32°F)
Dewpoint: -10.0°C (14°F) [RH = 47%]
Pressure (altimeter): 30.33 inches Hg (1027.2 mb)
Winds: from the SSW (210 degrees) at 2 MPH (2 knots; 1.0 m/s)
Visibility: 6 or more miles (10+ km)
Ceiling: 7000 feet AGL
Clouds: broken clouds at 7000 feet AGL
Weather: no significant weather observed at this time

Forecast for: RKSM (SEOUL EAST(KOR-A, KR)
Text: TAF RKSM 152300Z 1600/1706 33006KT 9999 FEW030 TNM06/1621Z TX05/1706Z
Forecast period: 0000 UTC 16 February 2019 to 0600 UTC 17 February 2019
Forecast type: FROM: standard forecast or significant change
Winds: from the NNW (330 degrees) at 7 MPH (6 knots; 3.1 m/s)
Visibility: 6 or more miles 10+ km)
Ceiling: at least 12,000 feet AGL
Clouds: few clouds at 3000 feet AGL
Weather: no significant weather forecast for this period